Time;durP1;ratioP1;P1;durP2;ratioP2;P2;SDS_P1;SDS_P2;PMS_P1;PMS_P2;Temp;Humidity;BMP_temperature;BMP_pressure;BME280_temperature;BME280_humidity;BME280_pressure;Samples;Min_cycle;Max_cycle;Signal;HPM_P1;HPM_P2
2022/10/25 00:00:23;;;;;;;8.23;1.90;;;13.90;99.90;;;;;;5105782;28;20217;-83
2022/10/25 00:02:51;;;;;;;5.93;1.40;;;13.90;99.90;;;;;;5095957;28;20212;-83
2022/10/25 00:05:18;;;;;;;2.30;0.97;;;14.00;99.90;;;;;;5099527;28;20594;-84
2022/10/25 00:07:45;;;;;;;2.30;0.90;;;14.00;99.90;;;;;;5105127;28;20219;-84
2022/10/25 00:10:12;;;;;;;4.70;0.97;;;14.00;99.90;;;;;;5103766;28;20217;-83
2022/10/25 00:12:42;;;;;;;1.45;0.90;;;14.00;99.90;;;;;;5096710;28;20202;-82
2022/10/25 00:15:12;;;;;;;2.47;1.00;;;14.10;99.90;;;;;;5092863;28;20255;-82
2022/10/25 00:17:39;;;;;;;3.53;1.37;;;14.20;99.90;;;;;;5098025;28;20710;-83
2022/10/25 00:20:09;;;;;;;4.93;1.20;;;14.20;99.90;;;;;;5111886;28;20217;-83
2022/10/25 00:22:36;;;;;;;14.57;2.40;;;14.20;99.90;;;;;;5112850;28;20646;-83
2022/10/25 00:25:03;;;;;;;4.43;1.30;;;14.10;99.90;;;;;;5110573;28;20197;-83
2022/10/25 00:27:30;;;;;;;6.60;1.93;;;14.10;99.90;;;;;;5110525;28;20217;-84
2022/10/25 00:29:56;;;;;;;8.13;2.10;;;14.00;99.90;;;;;;5099807;28;20222;-84
2022/10/25 00:32:23;;;;;;;2.27;1.30;;;14.00;99.90;;;;;;5093111;28;20209;-83
2022/10/25 00:34:50;;;;;;;4.60;1.80;;;13.90;99.90;;;;;;5106312;28;20212;-84
2022/10/25 00:37:18;;;;;;;5.57;1.60;;;13.90;99.90;;;;;;5108084;28;20203;-83
2022/10/25 00:39:45;;;;;;;5.30;1.97;;;13.90;99.90;;;;;;5104069;28;20304;-84
2022/10/25 00:42:18;;;;;;;6.20;1.57;;;13.90;99.90;;;;;;5106729;28;20207;-84
2022/10/25 00:44:52;;;;;;;3.50;1.40;;;13.90;99.90;;;;;;5114106;28;20655;-84
2022/10/25 00:47:30;;;;;;;4.10;1.60;;;13.80;99.90;;;;;;5113946;28;20194;-84
2022/10/25 00:50:00;;;;;;;2.53;1.03;;;13.80;99.90;;;;;;5114544;28;20236;-84
2022/10/25 00:52:31;;;;;;;4.17;1.30;;;13.70;99.90;;;;;;5116323;28;20624;-84
2022/10/25 00:54:59;;;;;;;2.17;1.30;;;13.70;99.90;;;;;;5117423;28;20585;-84
2022/10/25 00:57:31;;;;;;;8.00;2.00;;;13.60;99.90;;;;;;5095962;28;20205;-84
2022/10/25 00:59:59;;;;;;;4.20;2.00;;;13.60;99.90;;;;;;5098103;28;20221;-84
2022/10/25 01:02:25;;;;;;;2.93;1.30;;;13.60;99.90;;;;;;5113889;28;20207;-84
2022/10/25 01:04:53;;;;;;;4.67;1.33;;;13.70;99.90;;;;;;5113702;28;20567;-84
2022/10/25 01:07:20;;;;;;;4.47;1.57;;;13.70;99.90;;;;;;5107249;28;20667;-84
2022/10/25 01:09:48;;;;;;;4.33;1.57;;;13.60;99.90;;;;;;5113051;28;20227;-84
2022/10/25 01:12:15;;;;;;;3.67;1.33;;;13.60;99.90;;;;;;5097339;28;20712;-84
2022/10/25 01:14:45;;;;;;;3.90;1.30;;;13.60;99.90;;;;;;5112207;28;20205;-84
2022/10/25 01:17:19;;;;;;;5.37;1.80;;;13.50;99.90;;;;;;5105735;28;20197;-83
2022/10/25 01:20:13;;;;;;;5.43;2.07;;;13.70;99.90;;;;;;5117587;28;20249;-83
2022/10/25 01:22:44;;;;;;;4.43;2.03;;;13.80;99.90;;;;;;5116274;28;20629;-83
2022/10/25 01:25:44;;;;;;;4.37;2.00;;;13.80;99.90;;;;;;5115963;28;20188;-83
2022/10/25 01:28:16;;;;;;;5.30;1.80;;;13.70;99.90;;;;;;5108817;28;20681;-84
2022/10/25 01:31:12;;;;;;;2.07;1.30;;;13.60;99.90;;;;;;5116306;28;20689;-83
2022/10/25 01:33:44;;;;;;;6.03;1.87;;;13.60;99.90;;;;;;5113587;28;20204;-84
2022/10/25 01:36:16;;;;;;;5.13;2.00;;;13.60;99.90;;;;;;5115653;28;20551;-83
2022/10/25 01:38:48;;;;;;;3.70;1.57;;;13.60;99.90;;;;;;5114281;28;20439;-83
2022/10/25 01:41:24;;;;;;;2.57;1.20;;;13.70;99.90;;;;;;5115867;28;20637;-83
2022/10/25 01:44:03;;;;;;;2.53;1.43;;;13.60;99.90;;;;;;5115473;28;20196;-83
2022/10/25 01:46:38;;;;;;;6.03;1.40;;;13.70;99.90;;;;;;5101704;28;20194;-83
2022/10/25 01:49:08;;;;;;;3.40;1.80;;;13.70;99.90;;;;;;5104321;28;20227;-83
2022/10/25 01:51:36;;;;;;;4.97;1.90;;;13.70;99.90;;;;;;5114926;28;20656;-84
2022/10/25 01:54:15;;;;;;;6.90;2.10;;;13.70;99.90;;;;;;5116764;28;20200;-84
2022/10/25 01:56:49;;;;;;;5.53;2.03;;;13.70;99.90;;;;;;5093293;28;20686;-84
2022/10/25 01:59:49;;;;;;;4.93;1.60;;;13.70;99.90;;;;;;5096129;28;20215;-83
2022/10/25 02:02:23;;;;;;;3.63;1.40;;;13.80;99.90;;;;;;5098342;28;20277;-83
2022/10/25 02:04:58;;;;;;;5.00;1.57;;;13.80;99.90;;;;;;5103493;28;20197;-83
2022/10/25 02:07:31;;;;;;;6.87;2.07;;;13.70;99.90;;;;;;5109396;28;20543;-83
2022/10/25 02:10:04;;;;;;;4.13;1.50;;;13.70;99.90;;;;;;5112101;28;20762;-83
2022/10/25 02:12:38;;;;;;;3.80;2.33;;;13.70;99.90;;;;;;5097177;28;20202;-83
2022/10/25 02:15:09;;;;;;;2.93;1.57;;;13.80;99.90;;;;;;5108483;28;20190;-83
2022/10/25 02:17:41;;;;;;;5.57;2.67;;;13.60;99.90;;;;;;5105532;28;20278;-83
2022/10/25 02:20:10;;;;;;;4.70;2.10;;;13.70;99.90;;;;;;5103251;28;20223;-83
2022/10/25 02:22:38;;;;;;;5.80;2.23;;;13.60;99.90;;;;;;5114010;28;20372;-83
2022/10/25 02:25:08;;;;;;;3.70;2.13;;;13.60;99.90;;;;;;5113667;28;20645;-83
2022/10/25 02:27:36;;;;;;;6.20;2.50;;;13.60;99.90;;;;;;5115020;28;20258;-83
2022/10/25 02:30:05;;;;;;;8.10;2.50;;;13.50;99.90;;;;;;5109450;28;20217;-83
2022/10/25 02:32:31;;;;;;;3.63;2.67;;;13.60;99.90;;;;;;5097059;28;20216;-83
2022/10/25 02:35:00;;;;;;;3.17;2.00;;;13.70;99.90;;;;;;5113005;28;20577;-83
2022/10/25 02:37:26;;;;;;;7.60;2.57;;;13.60;99.90;;;;;;5114765;28;20197;-83
2022/10/25 02:39:53;;;;;;;3.90;2.60;;;13.60;99.90;;;;;;5113658;28;20213;-83
2022/10/25 02:42:20;;;;;;;4.97;2.40;;;13.60;99.90;;;;;;5112049;28;20555;-83
2022/10/25 02:44:47;;;;;;;4.13;2.13;;;13.70;99.90;;;;;;5114216;28;20197;-83
2022/10/25 02:47:13;;;;;;;7.93;2.53;;;13.60;99.90;;;;;;5113861;28;20197;-83
2022/10/25 02:49:40;;;;;;;5.07;2.10;;;13.60;99.90;;;;;;5105970;28;20221;-83
2022/10/25 02:52:08;;;;;;;4.63;2.00;;;13.60;99.90;;;;;;5097642;28;20215;-83
2022/10/25 02:54:35;;;;;;;8.53;1.97;;;13.60;99.90;;;;;;5094320;28;20722;-83
2022/10/25 02:57:02;;;;;;;5.87;1.90;;;13.60;99.90;;;;;;5107608;28;20196;-83
2022/10/25 02:59:29;;;;;;;4.87;2.00;;;13.60;99.90;;;;;;5114247;28;20213;-83
2022/10/25 03:01:56;;;;;;;6.10;1.87;;;13.60;99.90;;;;;;5112684;28;20208;-84
2022/10/25 03:04:23;;;;;;;4.80;2.00;;;13.50;99.90;;;;;;5113851;28;20287;-83
2022/10/25 03:06:49;;;;;;;4.77;1.67;;;13.60;99.90;;;;;;5108010;28;20197;-84
2022/10/25 03:09:18;;;;;;;4.20;2.40;;;13.60;99.90;;;;;;5109512;28;20595;-83
2022/10/25 03:11:44;;;;;;;6.10;2.03;;;13.60;99.90;;;;;;5112957;28;20212;-83
2022/10/25 03:14:11;;;;;;;2.83;1.80;;;13.60;99.90;;;;;;5114725;28;20211;-82
2022/10/25 03:16:38;;;;;;;5.37;2.00;;;13.60;99.90;;;;;;5110995;28;20216;-83
2022/10/25 03:19:05;;;;;;;4.90;2.13;;;13.60;99.90;;;;;;5108844;28;20248;-83
2022/10/25 03:21:32;;;;;;;2.97;2.00;;;13.60;99.90;;;;;;5115680;28;20661;-83
2022/10/25 03:23:59;;;;;;;3.90;2.17;;;13.50;99.90;;;;;;5115233;28;20561;-84
2022/10/25 03:26:27;;;;;;;10.57;2.87;;;13.70;99.90;;;;;;5108471;28;20203;-83
2022/10/25 03:28:54;;;;;;;4.93;2.43;;;13.70;99.90;;;;;;5102174;28;20227;-83
2022/10/25 03:31:21;;;;;;;7.80;3.47;;;13.70;99.90;;;;;;5106361;28;20201;-85
2022/10/25 03:33:47;;;;;;;6.23;3.00;;;13.80;99.90;;;;;;5114106;28;20211;-85
2022/10/25 03:36:14;;;;;;;6.63;2.80;;;13.70;99.90;;;;;;5117250;28;20690;-85
2022/10/25 03:38:41;;;;;;;5.77;3.10;;;13.70;99.90;;;;;;5115253;28;20255;-85
2022/10/25 03:41:08;;;;;;;5.13;2.80;;;13.80;99.90;;;;;;5115560;28;20196;-87
2022/10/25 03:43:36;;;;;;;7.27;3.17;;;13.70;99.90;;;;;;5115793;28;20201;-85
2022/10/25 03:46:03;;;;;;;6.93;2.80;;;13.70;99.90;;;;;;5115739;28;20556;-85
2022/10/25 03:48:30;;;;;;;4.03;2.40;;;13.50;99.90;;;;;;5115388;28;20590;-85
2022/10/25 03:50:57;;;;;;;4.30;2.50;;;13.70;99.90;;;;;;5116182;28;20204;-84
2022/10/25 03:53:23;;;;;;;5.70;3.30;;;13.70;99.90;;;;;;5115646;28;20197;-84
2022/10/25 03:55:50;;;;;;;6.10;2.93;;;13.70;99.90;;;;;;5115310;28;20573;-85
2022/10/25 03:58:18;;;;;;;6.40;3.17;;;13.70;99.90;;;;;;5116133;28;20204;-85
2022/10/25 04:00:46;;;;;;;5.50;3.03;;;13.70;99.90;;;;;;5116443;28;20221;-86
2022/10/25 04:03:13;;;;;;;12.53;3.37;;;13.70;99.90;;;;;;5114441;28;20223;-85
2022/10/25 04:05:40;;;;;;;7.80;3.57;;;13.70;99.90;;;;;;5114434;28;20563;-85
2022/10/25 04:08:06;;;;;;;9.90;3.90;;;13.70;99.90;;;;;;5114838;28;20209;-85
2022/10/25 04:10:33;;;;;;;6.33;3.77;;;13.70;99.90;;;;;;5114027;28;20311;-85
2022/10/25 04:13:00;;;;;;;6.17;3.60;;;13.70;99.90;;;;;;5113479;28;20654;-85
2022/10/25 04:15:27;;;;;;;8.73;4.03;;;13.70;99.90;;;;;;5112918;28;20283;-86
2022/10/25 04:17:55;;;;;;;8.87;4.50;;;13.70;99.90;;;;;;5113466;28;20620;-86
2022/10/25 04:20:22;;;;;;;10.80;5.13;;;13.70;99.90;;;;;;5112440;28;20221;-86
2022/10/25 04:22:54;;;;;;;10.50;5.80;;;13.70;99.90;;;;;;5113317;28;20287;-86
2022/10/25 04:25:21;;;;;;;11.37;5.53;;;13.70;99.90;;;;;;5115399;28;20208;-86
2022/10/25 04:27:48;;;;;;;8.20;4.73;;;13.70;99.90;;;;;;5120034;28;20201;-85
2022/10/25 04:30:15;;;;;;;7.90;4.43;;;13.80;99.90;;;;;;5118943;28;20227;-86
2022/10/25 04:32:42;;;;;;;9.37;4.57;;;13.80;99.90;;;;;;5118417;28;20786;-87
2022/10/25 04:35:11;;;;;;;8.00;4.50;;;13.80;99.90;;;;;;5117975;28;20205;-86
2022/10/25 04:37:38;;;;;;;9.83;4.73;;;13.80;99.90;;;;;;5118513;27;20675;-86
2022/10/25 04:40:06;;;;;;;9.93;4.33;;;13.80;99.90;;;;;;5117338;28;20221;-86
2022/10/25 04:42:33;;;;;;;7.13;4.50;;;13.80;99.90;;;;;;5118168;28;20189;-86
2022/10/25 04:45:00;;;;;;;11.50;4.30;;;13.90;99.90;;;;;;5119058;28;20213;-85
2022/10/25 04:47:31;;;;;;;11.93;3.67;;;13.90;99.90;;;;;;5117912;28;20239;-87
2022/10/25 04:49:58;;;;;;;8.80;3.83;;;13.90;99.90;;;;;;5117694;28;20225;-87
2022/10/25 04:52:26;;;;;;;6.20;3.67;;;13.90;99.90;;;;;;5119321;28;20295;-85
2022/10/25 04:54:52;;;;;;;7.93;3.77;;;13.90;99.90;;;;;;5117725;28;20721;-86
2022/10/25 04:57:19;;;;;;;6.40;3.80;;;13.90;99.90;;;;;;5118630;28;20235;-86
2022/10/25 04:59:46;;;;;;;8.10;3.80;;;13.90;99.90;;;;;;5118853;28;20220;-88
2022/10/25 05:02:14;;;;;;;7.53;3.87;;;13.90;99.90;;;;;;5118875;27;20251;-85
2022/10/25 05:04:41;;;;;;;8.87;3.90;;;13.90;99.90;;;;;;5119269;28;20201;-86
2022/10/25 05:07:08;;;;;;;7.23;3.83;;;13.90;99.90;;;;;;5118753;28;20726;-86
2022/10/25 05:09:36;;;;;;;8.20;3.83;;;13.90;99.90;;;;;;5118091;28;20228;-85
2022/10/25 05:12:03;;;;;;;7.27;3.63;;;13.90;99.90;;;;;;5117916;28;20219;-86
2022/10/25 05:14:30;;;;;;;8.20;3.77;;;13.80;99.90;;;;;;5117998;28;20233;-85
2022/10/25 05:16:57;;;;;;;7.43;3.73;;;13.80;99.90;;;;;;5118224;28;20200;-86
2022/10/25 05:19:24;;;;;;;6.13;3.70;;;13.80;99.90;;;;;;5114562;28;20304;-86
2022/10/25 05:21:51;;;;;;;9.00;3.90;;;13.90;99.90;;;;;;5115696;28;20208;-86
2022/10/25 05:24:18;;;;;;;7.77;3.90;;;13.80;99.90;;;;;;5130438;27;20210;-86
2022/10/25 05:26:46;;;;;;;7.73;3.73;;;13.80;99.90;;;;;;5123430;27;20193;-86
2022/10/25 05:29:13;;;;;;;6.43;3.77;;;13.80;99.90;;;;;;5116859;28;20217;-86
2022/10/25 05:31:41;;;;;;;7.93;3.93;;;13.80;99.90;;;;;;5116315;28;20201;-85
2022/10/25 05:34:10;;;;;;;10.63;4.20;;;13.90;99.90;;;;;;5100238;28;20244;-85
2022/10/25 05:36:37;;;;;;;9.73;4.43;;;13.90;99.90;;;;;;5116615;28;20201;-86
2022/10/25 05:39:04;;;;;;;12.57;4.23;;;14.00;99.90;;;;;;5115229;28;20204;-86
2022/10/25 05:41:30;;;;;;;6.67;4.07;;;13.90;99.90;;;;;;5114845;28;20233;-86
2022/10/25 05:43:59;;;;;;;10.60;3.97;;;13.90;99.90;;;;;;5116875;28;20327;-85
2022/10/25 05:46:26;;;;;;;9.17;4.17;;;13.90;99.90;;;;;;5115984;28;20204;-86
2022/10/25 05:48:53;;;;;;;10.83;4.43;;;13.90;99.90;;;;;;5115392;28;20213;-87
2022/10/25 05:51:22;;;;;;;11.40;4.77;;;13.90;99.90;;;;;;5115957;28;20220;-86
2022/10/25 05:53:50;;;;;;;8.03;4.37;;;13.90;99.90;;;;;;5116883;28;20223;-86
2022/10/25 05:56:18;;;;;;;11.57;4.40;;;13.90;99.90;;;;;;5114202;28;20221;-86
2022/10/25 05:58:45;;;;;;;7.23;3.67;;;13.90;99.90;;;;;;5114481;28;20248;-86
2022/10/25 06:01:15;;;;;;;7.20;4.20;;;13.90;99.90;;;;;;5115244;28;20219;-86
2022/10/25 06:03:43;;;;;;;8.97;4.40;;;13.80;99.90;;;;;;5117121;28;20284;-86
2022/10/25 06:06:11;;;;;;;7.73;4.33;;;13.70;99.90;;;;;;5115466;28;20224;-87
2022/10/25 06:08:39;;;;;;;10.57;5.00;;;13.90;99.90;;;;;;5116732;28;20291;-86
2022/10/25 06:11:07;;;;;;;9.57;4.40;;;13.90;99.90;;;;;;5116218;28;20248;-86
2022/10/25 06:13:34;;;;;;;8.13;4.00;;;13.90;99.90;;;;;;5116422;28;20236;-86
2022/10/25 06:16:04;;;;;;;6.87;4.00;;;13.90;99.90;;;;;;5116807;28;20193;-86
2022/10/25 06:18:33;;;;;;;6.20;4.10;;;13.90;99.90;;;;;;5117140;28;20205;-85
2022/10/25 06:21:02;;;;;;;8.20;4.17;;;13.90;99.90;;;;;;5116936;28;20667;-85
2022/10/25 06:23:30;;;;;;;7.70;4.00;;;13.90;99.90;;;;;;5118609;28;20197;-85
2022/10/25 06:25:59;;;;;;;8.23;4.05;;;14.00;99.90;;;;;;5116459;28;20205;-86
2022/10/25 06:28:26;;;;;;;6.90;3.97;;;14.00;99.90;;;;;;5116371;28;20204;-87
2022/10/25 06:30:53;;;;;;;9.48;4.20;;;14.00;99.90;;;;;;5115868;28;20220;-85
2022/10/25 06:33:20;;;;;;;9.47;4.60;;;14.00;99.90;;;;;;5116381;28;20635;-85
2022/10/25 06:35:54;;;;;;;9.67;4.80;;;14.00;99.90;;;;;;5117738;28;20292;-86
2022/10/25 06:38:20;;;;;;;8.57;4.87;;;14.00;99.90;;;;;;5116714;28;20300;-86
2022/10/25 06:40:47;;;;;;;11.37;5.37;;;14.00;99.90;;;;;;5116326;28;20227;-86
2022/10/25 06:43:14;;;;;;;10.17;4.77;;;14.00;99.90;;;;;;5117352;28;20213;-84
2022/10/25 06:45:41;;;;;;;10.57;5.43;;;14.00;99.90;;;;;;5116119;28;20292;-86
2022/10/25 06:48:08;;;;;;;10.13;4.90;;;14.00;99.90;;;;;;5115530;28;20208;-86
2022/10/25 06:50:35;;;;;;;10.90;5.10;;;14.00;99.90;;;;;;5115215;28;20256;-85
2022/10/25 06:53:03;;;;;;;8.63;4.27;;;14.00;99.90;;;;;;5117393;28;20634;-85
2022/10/25 06:55:30;;;;;;;7.40;4.37;;;14.10;99.90;;;;;;5114630;28;20300;-86
2022/10/25 06:57:57;;;;;;;11.33;4.30;;;14.10;99.90;;;;;;5116141;28;20661;-85
2022/10/25 07:00:24;;;;;;;10.20;4.23;;;14.10;99.90;;;;;;5116977;28;20229;-86
2022/10/25 07:02:54;;;;;;;9.83;5.20;;;14.30;99.90;;;;;;5114441;28;20291;-86
2022/10/25 07:05:21;;;;;;;9.03;4.40;;;14.10;99.90;;;;;;5116441;28;20565;-86
2022/10/25 07:07:48;;;;;;;10.13;4.93;;;14.20;99.90;;;;;;5115216;28;20284;-86
2022/10/25 07:10:17;;;;;;;12.13;4.77;;;14.20;99.90;;;;;;5115753;28;20276;-86
2022/10/25 07:12:44;;;;;;;8.23;4.57;;;14.10;99.90;;;;;;5114538;28;20212;-86
2022/10/25 07:15:11;;;;;;;11.60;4.80;;;14.10;99.90;;;;;;5115795;28;20201;-85
2022/10/25 07:17:37;;;;;;;8.60;4.60;;;14.10;99.90;;;;;;5115382;28;20624;-86
2022/10/25 07:20:05;;;;;;;11.83;4.70;;;14.20;99.90;;;;;;5115075;28;20317;-86
2022/10/25 07:22:33;;;;;;;10.60;5.17;;;14.10;99.90;;;;;;5115679;28;20211;-84
2022/10/25 07:24:59;;;;;;;12.83;5.57;;;14.00;99.90;;;;;;5115374;28;20287;-86
2022/10/25 07:27:30;;;;;;;13.77;6.33;;;14.10;99.90;;;;;;5116471;28;20225;-83
2022/10/25 07:29:57;;;;;;;9.83;6.10;;;14.20;99.90;;;;;;5115950;28;20756;-85
2022/10/25 07:32:24;;;;;;;11.30;6.23;;;14.10;99.90;;;;;;5115619;28;20197;-86
2022/10/25 07:34:51;;;;;;;15.50;7.00;;;14.10;99.90;;;;;;5114438;28;20201;-86
2022/10/25 07:37:18;;;;;;;11.27;5.77;;;14.20;99.90;;;;;;5115929;28;20197;-86
2022/10/25 07:39:45;;;;;;;15.83;7.20;;;14.00;99.90;;;;;;5116095;28;20231;-86
2022/10/25 07:42:11;;;;;;;14.00;7.07;;;14.00;99.90;;;;;;5116397;28;20211;-85
2022/10/25 07:44:40;;;;;;;13.17;6.60;;;14.10;99.90;;;;;;5114482;28;20201;-87
2022/10/25 07:47:06;;;;;;;11.17;6.57;;;14.10;99.90;;;;;;5115379;28;20229;-86
2022/10/25 07:49:35;;;;;;;19.67;6.97;;;14.10;99.90;;;;;;5115138;28;20225;-84
2022/10/25 07:52:02;;;;;;;12.07;5.67;;;14.20;99.90;;;;;;5116211;28;20209;-85
2022/10/25 07:54:29;;;;;;;9.57;5.50;;;14.20;99.90;;;;;;5115835;28;20243;-86
2022/10/25 07:56:55;;;;;;;19.67;5.87;;;14.30;99.90;;;;;;5114517;28;20211;-86
2022/10/25 07:59:22;;;;;;;11.00;5.30;;;14.20;99.90;;;;;;5115430;28;20232;-86
2022/10/25 08:01:50;;;;;;;9.20;5.20;;;14.20;99.90;;;;;;5118708;28;20723;-86
2022/10/25 08:04:17;;;;;;;8.10;5.43;;;14.20;99.90;;;;;;5119856;28;20217;-85
2022/10/25 08:06:44;;;;;;;10.17;6.50;;;14.20;99.90;;;;;;5120149;28;20652;-86
2022/10/25 08:09:11;;;;;;;9.33;5.80;;;14.20;99.90;;;;;;5119805;28;20235;-86
2022/10/25 08:11:37;;;;;;;14.35;6.15;;;14.20;99.90;;;;;;5117879;28;20227;-86
2022/10/25 08:14:04;;;;;;;10.60;6.30;;;14.30;99.90;;;;;;5119064;28;20201;-86
2022/10/25 08:16:31;;;;;;;10.23;5.93;;;14.20;99.90;;;;;;5118068;28;20288;-85
2022/10/25 08:18:59;;;;;;;9.00;5.80;;;14.50;99.90;;;;;;5119573;28;20247;-84
2022/10/25 08:21:26;;;;;;;11.13;6.30;;;14.90;99.90;;;;;;5119909;28;20209;-86
2022/10/25 08:23:53;;;;;;;11.60;5.93;;;15.20;99.90;;;;;;5119994;28;20217;-87
2022/10/25 08:26:23;;;;;;;11.20;5.82;;;15.30;99.90;;;;;;5118249;28;20671;-86
2022/10/25 08:28:51;;;;;;;11.32;6.40;;;15.30;99.90;;;;;;5118098;28;20333;-84
2022/10/25 08:31:18;;;;;;;9.75;5.50;;;15.20;99.90;;;;;;5118950;28;20233;-86
2022/10/25 08:33:45;;;;;;;9.77;5.28;;;15.10;99.90;;;;;;5118066;28;20236;-86
2022/10/25 08:36:13;;;;;;;6.55;5.05;;;15.20;99.90;;;;;;5119179;28;20295;-85
2022/10/25 08:38:40;;;;;;;14.13;5.82;;;15.30;99.90;;;;;;5119678;28;20284;-86
2022/10/25 08:41:13;;;;;;;7.28;4.85;;;15.30;99.90;;;;;;5119742;28;20225;-85
2022/10/25 08:44:08;;;;;;;7.90;4.97;;;15.60;99.90;;;;;;5120544;28;20287;-85
2022/10/25 08:46:40;;;;;;;10.03;5.17;;;15.70;99.90;;;;;;5118990;28;20283;-86
2022/10/25 08:49:18;;;;;;;10.25;4.97;;;15.70;99.90;;;;;;5118824;28;20244;-85
2022/10/25 08:51:49;;;;;;;9.38;5.25;;;15.60;99.90;;;;;;5119849;28;20296;-86
2022/10/25 08:54:24;;;;;;;12.52;5.28;;;15.60;99.90;;;;;;5119820;28;20574;-86
2022/10/25 08:56:54;;;;;;;6.78;4.53;;;15.80;99.90;;;;;;5120091;28;20591;-84
2022/10/25 08:59:27;;;;;;;8.60;5.03;;;15.70;99.90;;;;;;5118050;28;20267;-88
2022/10/25 09:01:58;;;;;;;6.63;5.15;;;15.90;99.90;;;;;;5118351;28;20728;-84
2022/10/25 09:04:25;;;;;;;10.32;5.25;;;15.90;99.90;;;;;;5119749;28;20550;-87
2022/10/25 09:07:01;;;;;;;8.23;4.78;;;16.20;99.90;;;;;;5121129;28;20906;-83
2022/10/25 09:09:38;;;;;;;9.02;5.05;;;16.20;99.90;;;;;;5118985;28;20220;-85
2022/10/25 09:12:14;;;;;;;10.30;5.20;;;16.40;99.90;;;;;;5118438;28;20227;-85
2022/10/25 09:14:48;;;;;;;6.53;4.38;;;16.40;99.90;;;;;;5118686;28;20196;-85
2022/10/25 09:17:19;;;;;;;8.23;4.60;;;16.60;99.90;;;;;;5119390;28;20218;-86
2022/10/25 09:19:57;;;;;;;8.00;4.80;;;16.60;99.90;;;;;;5119855;28;20231;-85
2022/10/25 09:22:28;;;;;;;11.30;5.20;;;16.50;99.90;;;;;;5120847;28;20204;-85
2022/10/25 09:24:59;;;;;;;8.60;4.70;;;16.40;99.90;;;;;;5118634;28;20193;-86
2022/10/25 09:27:34;;;;;;;9.25;4.68;;;16.30;99.90;;;;;;5118378;28;20290;-86
2022/10/25 09:30:05;;;;;;;8.60;4.65;;;16.30;99.90;;;;;;5119313;28;20266;-85
2022/10/25 09:32:38;;;;;;;7.63;5.00;;;16.30;99.90;;;;;;5119291;28;20677;-85
2022/10/25 09:35:12;;;;;;;10.27;4.68;;;16.40;99.90;;;;;;5118991;28;20197;-85
2022/10/25 09:37:44;;;;;;;9.48;5.07;;;16.40;99.90;;;;;;5118914;28;20657;-86
2022/10/25 09:40:14;;;;;;;5.55;4.40;;;16.30;99.90;;;;;;5118140;28;20606;-85
2022/10/25 09:42:53;;;;;;;5.28;4.60;;;16.30;99.90;;;;;;5119175;28;20204;-85
2022/10/25 09:45:24;;;;;;;7.68;4.43;;;16.30;99.90;;;;;;5119725;28;20625;-86
2022/10/25 09:48:00;;;;;;;4.93;4.28;;;16.30;99.90;;;;;;5119029;28;20197;-87
2022/10/25 09:50:29;;;;;;;6.53;4.57;;;16.40;99.90;;;;;;5119744;28;20256;-85
2022/10/25 09:53:10;;;;;;;6.97;4.47;;;16.60;99.90;;;;;;5119500;28;20212;-84
2022/10/25 09:55:44;;;;;;;7.97;4.53;;;16.70;99.90;;;;;;5120227;28;20185;-86
2022/10/25 09:58:18;;;;;;;7.97;4.50;;;17.00;99.90;;;;;;5120520;28;20212;-85
2022/10/25 10:00:45;;;;;;;5.85;4.22;;;16.90;99.90;;;;;;5120327;28;20244;-85
2022/10/25 10:03:13;;;;;;;9.13;4.57;;;17.00;99.90;;;;;;5119207;28;20660;-85
2022/10/25 10:05:42;;;;;;;5.35;3.72;;;16.70;99.90;;;;;;5118127;28;20203;-85
2022/10/25 10:08:10;;;;;;;7.20;4.35;;;16.60;99.90;;;;;;5119453;28;20201;-87
2022/10/25 10:10:38;;;;;;;6.40;4.32;;;16.50;99.90;;;;;;5118355;28;20227;-86
2022/10/25 10:13:12;;;;;;;6.30;4.40;;;16.60;99.90;;;;;;5119187;28;20229;-86
2022/10/25 10:15:47;;;;;;;6.18;4.75;;;16.50;99.90;;;;;;5118981;28;20249;-85
2022/10/25 10:18:25;;;;;;;6.47;4.18;;;16.60;99.90;;;;;;5118251;28;20279;-85
2022/10/25 10:21:01;;;;;;;9.27;4.30;;;16.40;99.90;;;;;;5119132;28;20207;-85
2022/10/25 10:23:32;;;;;;;6.10;3.75;;;16.30;99.90;;;;;;5118406;28;20722;-86
2022/10/25 10:26:03;;;;;;;7.38;3.38;;;16.20;99.90;;;;;;5118068;28;20569;-84
2022/10/25 10:28:30;;;;;;;5.53;3.85;;;16.20;99.90;;;;;;5117884;28;20292;-88
2022/10/25 10:31:07;;;;;;;6.95;3.90;;;16.40;99.90;;;;;;5118078;28;20275;-85
2022/10/25 10:33:35;;;;;;;6.75;3.78;;;16.40;99.90;;;;;;5118283;28;20211;-84
2022/10/25 10:36:20;;;;;;;8.73;4.20;;;16.70;99.90;;;;;;5118728;28;20205;-85
2022/10/25 10:38:49;;;;;;;6.15;3.88;;;17.10;99.90;;;;;;5118458;28;20224;-84
2022/10/25 10:41:23;;;;;;;6.38;3.33;;;17.00;99.90;;;;;;5118588;28;20630;-86
2022/10/25 10:43:50;;;;;;;7.07;3.90;;;16.90;99.90;;;;;;5118713;28;20576;-85
2022/10/25 10:46:20;;;;;;;7.10;4.72;;;16.60;99.90;;;;;;5118032;28;20189;-86
2022/10/25 10:48:53;;;;;;;7.68;4.20;;;16.70;99.90;;;;;;5118945;28;20240;-87
2022/10/25 10:51:34;;;;;;;7.63;4.30;;;16.50;99.90;;;;;;5116933;28;20284;-82
2022/10/25 10:54:26;;;;;;;8.05;4.72;;;16.60;99.90;;;;;;5117995;28;20268;-84
2022/10/25 10:56:55;;;;;;;4.95;3.67;;;16.60;99.90;;;;;;5118633;28;20212;-86
2022/10/25 10:59:36;;;;;;;8.60;4.47;;;16.70;99.90;;;;;;5119697;28;20260;-86
2022/10/25 11:02:22;;;;;;;5.95;4.50;;;16.80;99.90;;;;;;5117838;28;20214;-86
2022/10/25 11:04:50;;;;;;;8.27;4.00;;;16.70;99.90;;;;;;5117703;28;20264;-86
2022/10/25 11:07:29;;;;;;;8.82;4.82;;;16.80;99.90;;;;;;5117261;28;20228;-86
2022/10/25 11:10:20;;;;;;;8.13;3.92;;;16.70;99.90;;;;;;5117058;28;20226;-86
2022/10/25 11:13:08;;;;;;;9.23;4.20;;;16.60;99.90;;;;;;5117868;28;20228;-85
2022/10/25 11:16:01;;;;;;;5.85;4.22;;;16.40;99.90;;;;;;5118071;28;20197;-86
2022/10/25 11:18:38;;;;;;;6.97;4.30;;;16.40;99.90;;;;;;5099295;28;20232;-85
2022/10/25 11:21:13;;;;;;;6.30;4.10;;;16.40;99.90;;;;;;5117562;27;20193;-87
2022/10/25 11:23:52;;;;;;;9.00;4.68;;;16.50;99.90;;;;;;5120757;27;20209;-84
2022/10/25 11:26:31;;;;;;;9.75;4.97;;;16.60;99.90;;;;;;5117068;28;20234;-85
2022/10/25 11:29:08;;;;;;;8.45;4.80;;;16.60;99.90;;;;;;5115502;28;20240;-86
2022/10/25 11:31:49;;;;;;;9.70;5.13;;;16.50;99.90;;;;;;5116093;28;20227;-85
2022/10/25 11:34:24;;;;;;;8.10;5.38;;;16.50;99.90;;;;;;5109566;28;20193;-86
2022/10/25 11:37:06;;;;;;;7.00;5.32;;;16.50;99.90;;;;;;5108637;28;20212;-86
2022/10/25 11:39:42;;;;;;;6.88;5.55;;;16.60;99.90;;;;;;5114672;28;20314;-85
2022/10/25 11:42:25;;;;;;;7.20;5.22;;;16.70;99.90;;;;;;5115101;28;20279;-84
2022/10/25 11:45:18;;;;;;;5.90;4.63;;;16.70;99.90;;;;;;5117851;28;20272;-85
2022/10/25 11:47:55;;;;;;;7.28;4.68;;;16.70;99.90;;;;;;5118356;28;20560;-85
2022/10/25 11:50:32;;;;;;;6.55;4.63;;;16.70;99.90;;;;;;5119902;28;20719;-89
2022/10/25 11:53:16;;;;;;;10.82;4.85;;;16.80;99.90;;;;;;5118083;28;20197;-85
2022/10/25 11:55:48;;;;;;;11.48;6.43;;;17.00;99.90;;;;;;5119154;28;20204;-89
2022/10/25 11:58:29;;;;;;;7.90;4.72;;;17.40;99.90;;;;;;5120206;28;20201;-89
2022/10/25 12:01:06;;;;;;;6.57;4.35;;;17.70;99.90;;;;;;5117812;28;20207;-85
2022/10/25 12:03:54;;;;;;;6.70;4.53;;;17.40;86.70;;;;;;5117578;28;20200;-88
2022/10/25 12:06:27;;;;;;;8.23;4.90;;;17.60;99.90;;;;;;5115718;28;20201;-87
2022/10/25 12:09:06;;;;;;;8.50;4.60;;;17.30;99.90;;;;;;5096542;28;20230;-86
2022/10/25 12:11:37;;;;;;;10.30;5.10;;;17.20;99.90;;;;;;5097906;28;20232;-86
2022/10/25 12:14:11;;;;;;;8.40;4.82;;;17.20;99.90;;;;;;5098371;28;20300;-82
2022/10/25 12:16:40;;;;;;;9.13;4.72;;;17.10;99.90;;;;;;5097700;28;20225;-86
2022/10/25 12:19:15;;;;;;;8.27;4.60;;;17.30;99.90;;;;;;5097337;28;20571;-86
2022/10/25 12:21:45;;;;;;;9.23;4.75;;;17.60;99.90;;;;;;5096634;28;20688;-88
2022/10/25 12:24:20;;;;;;;8.45;4.60;;;19.20;99.90;;;;;;5097003;28;20669;-87
2022/10/25 12:26:49;;;;;;;7.20;4.15;;;18.70;99.90;;;;;;5104336;28;20192;-86
2022/10/25 12:29:21;;;;;;;11.50;5.28;;;18.40;1.00;;;;;;5110024;28;20209;-88
2022/10/25 12:31:55;;;;;;;7.10;4.22;;;17.90;1.00;;;;;;5096188;28;20593;-87
2022/10/25 12:34:27;;;;;;;6.68;4.07;;;19.60;99.90;;;;;;5108437;28;20197;-85
2022/10/25 12:36:57;;;;;;;5.82;3.90;;;20.70;1.00;;;;;;5118840;28;20620;-84
2022/10/25 12:39:33;;;;;;;4.60;4.00;;;19.20;99.90;;;;;;5118573;28;20315;-85
2022/10/25 12:42:04;;;;;;;5.13;4.07;;;20.00;99.90;;;;;;5119516;28;20193;-85
2022/10/25 12:44:51;;;;;;;5.38;4.30;;;20.60;1.00;;;;;;5119507;28;20201;-86
2022/10/25 12:47:41;;;;;;;3.88;3.35;;;19.80;1.00;;;;;;5122800;28;20291;-86
2022/10/25 12:50:29;;;;;;;7.10;3.88;;;19.20;1.00;;;;;;5124195;28;20263;-88
2022/10/25 12:53:24;;;;;;;5.68;3.35;;;18.10;1.00;;;;;;5124269;28;20216;-85
2022/10/25 12:56:01;;;;;;;5.15;3.35;;;17.80;1.00;;;;;;5099053;28;20227;-85
2022/10/25 12:58:45;;;;;;;8.20;3.50;;;17.60;99.90;;;;;;5124584;28;20189;-92
2022/10/25 13:01:32;;;;;;;7.28;3.40;;;17.40;1.00;;;;;;5124357;28;20200;-86
2022/10/25 13:04:32;;;;;;;4.55;3.60;;;17.70;99.90;;;;;;5125655;28;20648;-85